SLSA/SBL METAR and TAF weather

Enter ICAO airport designator
Station Type Date Time Source
SLSA METAR 2021/08/04 23:00 UTC NOAA

SLSA 042300Z 12004KT 7000 FEW080 SCT200 28/16 Q1017


Station Type Date Time Source
SLSA Decoded METAR 2021/08/04 23:00 UTC NOAA

Santa Ana, Bolivia (SLSA) 13-46S 065-26W
Aug 04, 2021 - 07:00 PM EDT / 2021.08.04 2300 UTC
Wind: from the ESE (120 degrees) at 5 MPH (4 KT):0
Visibility: 4 mile(s):0
Sky conditions: partly cloudy
Temperature: 82 F (28 C)
Dew Point: 60 F (16 C)
Relative Humidity: 48%
Pressure (altimeter): 30.03 in. Hg (1017 hPa)
ob: SLSA 042300Z 12004KT 7000 FEW080 SCT200 28/16 Q1017
cycle: 23

Station Type Date Time Source
SLSA TAF 2009/01/07 11:00 UTC NOAA

METAR SLSA 071100Z 00000KT 9999 FEW020 BKN080 26/24 Q1009

Example: see airport list